Indianapolis, IN

9:56 AM EDT on August 19, 2017 (GMT -0400)
Indianapolis Terry

Weather History for KTYQ - March, 2013

Change the Weather History Date:

Wednesday, March 13, 2013

  Actual Average (KEYE) Record (KEYE)
Temperature  
Mean Temperature 28 °F -  
Max Temperature 31 °F 45 °F 79 °F (2007)
Min Temperature 25 °F 28 °F 17 °F (2014)
Degree Days  
Heating Degree Days 36    
Moisture  
Dew Point 20 °F    
Average Humidity 70    
Maximum Humidity 81    
Minimum Humidity 58    
Precipitation  
Precipitation 0.00 in - - ()
Sea Level Pressure  
Sea Level Pressure 30.18 in    
Wind  
Wind Speed 13 mph (WNW)    
Max Wind Speed 18 mph    
Max Gust Speed 28 mph    
Visibility 8 miles    
Events Snow    
Averages and records for this station are not official NWS values.
T = Trace of Precipitation, MM = Missing Value Source: NWS Daily Summary

Daily Weather History Graph

Daily Weather History Graph

Search for Another Location

Airport or City:

Trip Planner

Search our weather history database for the weather conditions in past years. The results will help you decide how hot, cold, wet, or windy it might be!

Date:

Astronomy

Mar. 13, 2013 Rise Set
Actual Time 7:59 AM EDT 7:50 PM EDT
Civil Twilight 7:32 AM EDT 8:17 PM EDT
Nautical Twilight 7:00 AM EDT 8:48 PM EDT
Astronomical Twilight 6:29 AM EDT 9:20 PM EDT
Moon 8:38 AM EDT (3/13) 10:06 PM EDT (3/13)
Length of Visible Light 12h 44m
Length of Day
11h 50m
Waxing Crescent, 4% of the Moon is Illuminated
Mar 13
Waxing Crescent
Mar 19
First Quarter
Mar 27
Full
Apr 3
Last Quarter
Apr 10
New

Hourly Weather History & Observations

Time (EDT) Temp. Windchill Dew Point Humidity Pressure Visibility Wind Dir Wind Speed Gust Speed Precip Events Conditions
12:15 AM 32.4 °F 22.1 °F 26.4 °F 79% 30.03 in 10.0 mi WNW 15.0 mph 27.6 mph N/A   Overcast
12:35 AM 32.0 °F 21.6 °F 24.6 °F 74% 30.03 in 10.0 mi WNW 15.0 mph 25.3 mph N/A   Overcast
12:55 AM 31.5 °F 21.8 °F 23.7 °F 73% 30.03 in 10.0 mi West 12.7 mph 19.6 mph N/A Snow Light Snow
1:15 AM 31.1 °F 21.9 °F 23.0 °F 72% 30.03 in 10.0 mi WNW 11.5 mph 19.6 mph N/A   Overcast
1:55 AM 30.4 °F 20.5 °F 24.3 °F 78% 30.03 in 7.0 mi West 12.7 mph 21.9 mph N/A Snow Light Snow
2:15 AM 30.2 °F 20.2 °F 24.3 °F 79% 30.03 in 10.0 mi West 12.7 mph 17.3 mph N/A   Overcast
2:35 AM 30.0 °F 18.3 °F 23.9 °F 78% 30.03 in 5.0 mi West 17.3 mph 24.2 mph N/A Snow Light Snow
2:55 AM 29.5 °F 17.6 °F 23.2 °F 77% 30.03 in 10.0 mi West 17.3 mph 21.9 mph N/A   Overcast
3:15 AM 28.9 °F 17.3 °F 21.0 °F 72% 30.03 in 10.0 mi WNW 16.1 mph 27.6 mph N/A   Overcast
3:35 AM 28.4 °F 18.5 °F 21.2 °F 74% 30.04 in 10.0 mi West 11.5 mph 21.9 mph N/A   Overcast
3:55 AM 27.9 °F 16.3 °F 19.9 °F 72% 30.04 in 10.0 mi West 15.0 mph 20.7 mph N/A   Mostly Cloudy
4:15 AM 27.3 °F 15.2 °F 18.9 °F 70% 30.04 in 10.0 mi West 16.1 mph 25.3 mph N/A   Mostly Cloudy
4:35 AM 27.3 °F 15.2 °F 19.4 °F 72% 30.04 in 10.0 mi West 16.1 mph 26.5 mph N/A Snow Light Snow
4:55 AM 26.4 °F 15.0 °F 19.6 °F 75% 30.04 in 4.0 mi WNW 13.8 mph 24.2 mph N/A Snow Light Snow
5:15 AM 25.7 °F 15.7 °F 20.3 °F 80% 30.05 in 4.0 mi West 10.4 mph - N/A Snow Light Snow
5:35 AM 26.2 °F 13.8 °F 19.9 °F 77% 30.05 in 10.0 mi West 16.1 mph 23.0 mph N/A   Overcast
5:55 AM 26.6 °F 16.2 °F 18.9 °F 73% 30.06 in 10.0 mi WNW 11.5 mph 20.7 mph N/A   Overcast
6:15 AM 26.6 °F 14.7 °F 19.0 °F 73% 30.06 in 10.0 mi WNW 15.0 mph 21.9 mph N/A Snow Light Snow
6:35 AM 26.4 °F 14.0 °F 19.4 °F 75% 30.07 in 10.0 mi WNW 16.1 mph 20.7 mph N/A Snow Light Snow
6:55 AM 26.2 °F 14.7 °F 19.6 °F 76% 30.08 in 7.0 mi WNW 13.8 mph 27.6 mph N/A Snow Light Snow
7:15 AM 26.4 °F 15.5 °F 20.1 °F 77% 30.08 in 10.0 mi WNW 12.7 mph 19.6 mph N/A   Overcast
7:35 AM 26.4 °F 15.5 °F 20.1 °F 77% 30.09 in 10.0 mi West 12.7 mph 20.7 mph N/A Snow Light Snow
7:55 AM 26.4 °F 16.6 °F 20.3 °F 78% 30.09 in 10.0 mi WNW 10.4 mph - N/A   Overcast
8:15 AM 26.4 °F 13.2 °F 20.8 °F 79% 30.10 in 3.0 mi West 18.4 mph 24.2 mph N/A Snow Light Snow
8:35 AM 26.1 °F 15.6 °F 20.8 °F 81% 30.11 in 3.0 mi WNW 11.5 mph 17.3 mph N/A Snow Light Snow
8:55 AM 26.4 °F 14.5 °F 20.3 °F 78% 30.11 in 10.0 mi WNW 15.0 mph 20.7 mph N/A   Overcast
9:15 AM 26.6 °F 16.2 °F 20.1 °F 77% 30.12 in 10.0 mi WNW 11.5 mph 21.9 mph N/A   Overcast
9:35 AM 26.6 °F 15.7 °F 20.8 °F 79% 30.13 in 2.0 mi WNW 12.7 mph 19.6 mph N/A Snow Light Snow
9:55 AM 27.1 °F 15.9 °F 21.0 °F 78% 30.14 in 10.0 mi WNW 13.8 mph 19.6 mph N/A   Overcast
10:15 AM 27.0 °F 15.6 °F 21.2 °F 79% 30.14 in 2.5 mi WNW 13.8 mph 19.6 mph N/A Snow Light Snow
10:35 AM 27.5 °F 17.4 °F 21.2 °F 77% 30.15 in 4.0 mi WNW 11.5 mph 18.4 mph N/A Snow Light Snow
10:55 AM 27.0 °F 14.7 °F 21.2 °F 79% 30.17 in 0.8 mi WNW 16.1 mph 21.9 mph N/A Snow Light Snow
11:15 AM 27.3 °F 16.1 °F 21.7 °F 80% 30.18 in 7.0 mi WNW 13.8 mph 19.6 mph N/A   Mostly Cloudy
11:35 AM 28.9 °F 18.6 °F 19.9 °F 69% 30.18 in 7.0 mi WNW 12.7 mph 21.9 mph N/A Snow Light Snow
11:55 AM 27.3 °F 15.2 °F 20.8 °F 77% 30.19 in 1.0 mi NW 16.1 mph 20.7 mph N/A Snow Light Snow
12:15 PM 28.4 °F 17.5 °F 20.5 °F 72% 30.20 in 10.0 mi NW 13.8 mph - N/A   Mostly Cloudy
12:35 PM 27.9 °F 17.3 °F 20.8 °F 75% 30.21 in 4.0 mi WNW 12.7 mph 18.4 mph N/A Snow Light Snow
12:55 PM 29.3 °F 17.7 °F 18.5 °F 64% 30.21 in 10.0 mi WNW 16.1 mph 21.9 mph N/A   Mostly Cloudy
1:15 PM 28.0 °F 16.1 °F 19.6 °F 71% 30.22 in 3.0 mi WNW 16.1 mph 26.5 mph N/A Snow Light Snow
1:35 PM 28.4 °F 17.5 °F 21.4 °F 75% 30.23 in 10.0 mi NW 13.8 mph 17.3 mph N/A   Overcast
1:55 PM 28.6 °F 18.2 °F 17.2 °F 63% 30.23 in 10.0 mi WNW 12.7 mph 24.2 mph N/A   Overcast
2:15 PM 29.8 °F 19.3 °F 17.4 °F 60% 30.23 in 10.0 mi WNW 13.8 mph 23.0 mph N/A   Overcast
2:35 PM 28.8 °F 19.0 °F 19.0 °F 67% 30.24 in 7.0 mi WNW 11.5 mph 24.2 mph N/A Snow Light Snow
2:55 PM 27.7 °F 17.1 °F 21.4 °F 77% 30.24 in 1.2 mi WNW 12.7 mph 21.9 mph N/A Snow Light Snow
3:15 PM 29.5 °F 18.4 °F 20.1 °F 68% 30.24 in 10.0 mi WNW 15.0 mph 20.7 mph N/A   Overcast
3:35 PM 29.3 °F 18.6 °F 19.8 °F 68% 30.24 in 10.0 mi WNW 13.8 mph 20.7 mph N/A Snow Light Snow
3:55 PM 29.5 °F 19.3 °F 20.3 °F 69% 30.25 in 7.0 mi WNW 12.7 mph 20.7 mph N/A Snow Light Snow
4:15 PM 29.7 °F 18.6 °F 19.6 °F 66% 30.25 in 7.0 mi WNW 15.0 mph 24.2 mph N/A Snow Light Snow
4:35 PM 29.7 °F 19.6 °F 21.0 °F 70% 30.26 in 5.0 mi WNW 12.7 mph 21.9 mph N/A Snow Light Snow
4:55 PM 30.0 °F 19.1 °F 19.8 °F 66% 30.26 in 10.0 mi WNW 15.0 mph - N/A   Overcast
5:15 PM 30.2 °F 19.8 °F 19.2 °F 64% 30.27 in 10.0 mi WNW 13.8 mph 23.0 mph N/A   Overcast
5:35 PM 30.7 °F 20.9 °F 19.4 °F 63% 30.27 in 10.0 mi WNW 12.7 mph - N/A   Overcast
5:55 PM 30.9 °F 20.7 °F 18.9 °F 61% 30.27 in 10.0 mi WNW 13.8 mph 24.2 mph N/A   Overcast
6:15 PM 30.6 °F 20.7 °F 18.5 °F 61% 30.27 in 10.0 mi WNW 12.7 mph 21.9 mph N/A   Mostly Cloudy
6:35 PM 30.9 °F 21.7 °F 18.1 °F 59% 30.28 in 10.0 mi WNW 11.5 mph 18.4 mph N/A   Mostly Cloudy
6:55 PM 31.1 °F 21.4 °F 18.0 °F 58% 30.28 in 10.0 mi WNW 12.7 mph 19.6 mph N/A   Overcast
7:15 PM 31.1 °F 22.4 °F 18.0 °F 58% 30.28 in 10.0 mi WNW 10.4 mph 18.4 mph N/A   Mostly Cloudy
7:35 PM 30.9 °F 21.7 °F 17.6 °F 58% 30.29 in 10.0 mi WNW 11.5 mph 17.3 mph N/A   Mostly Cloudy
7:55 PM 30.4 °F 22.2 °F 17.4 °F 59% 30.29 in 10.0 mi WNW 9.2 mph - N/A   Scattered Clouds
8:15 PM 30.0 °F 22.4 °F 17.6 °F 60% 30.29 in 10.0 mi WNW 8.1 mph - N/A   Scattered Clouds
8:35 PM 29.7 °F 22.8 °F 17.4 °F 60% 30.30 in 10.0 mi WNW 6.9 mph - N/A   Clear
8:55 PM 29.3 °F 22.3 °F 17.8 °F 62% 30.30 in 10.0 mi WNW 6.9 mph - N/A   Clear
9:15 PM 29.1 °F 22.1 °F 17.6 °F 62% 30.30 in 10.0 mi WNW 6.9 mph - N/A   Clear
9:35 PM 28.8 °F 20.9 °F 17.6 °F 63% 30.30 in 10.0 mi WNW 8.1 mph - N/A   Clear
9:55 PM 28.4 °F 21.2 °F 17.4 °F 63% 30.30 in 10.0 mi WNW 6.9 mph - N/A   Clear
10:15 PM 28.0 °F 20.8 °F 17.6 °F 65% 30.30 in 10.0 mi WNW 6.9 mph - N/A   Clear
10:35 PM 27.7 °F 21.3 °F 17.6 °F 66% 30.31 in 10.0 mi WNW 5.8 mph - N/A   Clear
10:55 PM 27.5 °F 21.1 °F 17.6 °F 66% 30.31 in 10.0 mi WNW 5.8 mph - N/A   Clear
11:15 PM 27.1 °F 19.7 °F 16.7 °F 65% 30.31 in 10.0 mi WNW 6.9 mph - N/A   Clear
11:35 PM 26.6 °F 20.0 °F 16.7 °F 66% 30.32 in 10.0 mi WNW 5.8 mph - N/A   Clear
11:55 PM 26.4 °F 19.8 °F 16.7 °F 67% 30.32 in 10.0 mi WNW 5.8 mph - N/A   Clear